Meadowbrook, Indiana
Current Conditions -  °F | °C
As of 9:54 PM on Friday 24 Oct 2014 (Local Time) from KFWA Reporting Station
Few Clouds Few Clouds  
Wind Chill: 46°   Ceiling: Unl
Heat Index: 49°   Visibility: 7mi
Dew Point: 47°   Wind: 7mph
Humidity: 93%   Direction: 200°SSW
Pressure: 30.01"   Gusts: NA
Location:  41.0925°N, 84.9712°W
Report Text: KFWA 250154Z 20006KT 7SM FEW035 09/08 A3001 RMK AO2 SLP163 T00940083
Loading
Personal Weather Stations






























Interactive Weather Map
Tropical Storm Tracking
New forecast layout! Learn more

10-Day Weather Forecast

Advertisements
Track Severe Weather on mobile